Time;durP1;ratioP1;P1;durP2;ratioP2;P2;SDS_P1;SDS_P2;PMS_P1;PMS_P2;Temp;Humidity;BMP_temperature;BMP_pressure;BME280_temperature;BME280_humidity;BME280_pressure;Samples;Min_cycle;Max_cycle;Signal;HPM_P1;HPM_P2
2023/08/30 00:01:17;;;;;;;2.20;2.00;;;15.60;99.90;;;;;;5055590;28;20100;-68
2023/08/30 00:03:43;;;;;;;1.90;1.80;;;15.60;99.90;;;;;;5055873;28;20040;-68
2023/08/30 00:06:08;;;;;;;1.80;1.70;;;15.60;99.90;;;;;;5056408;28;20032;-68
2023/08/30 00:08:34;;;;;;;2.20;1.63;;;15.60;99.90;;;;;;5055663;28;20041;-68
2023/08/30 00:11:01;;;;;;;1.90;1.80;;;15.60;99.90;;;;;;5056085;28;20029;-67
2023/08/30 00:13:30;;;;;;;1.98;1.88;;;15.60;99.90;;;;;;5055574;28;20467;-68
2023/08/30 00:15:55;;;;;;;3.50;2.00;;;15.60;99.90;;;;;;5055932;28;20025;-68
2023/08/30 00:18:21;;;;;;;1.80;1.70;;;15.60;99.90;;;;;;5055142;28;20052;-68
2023/08/30 00:20:47;;;;;;;1.80;1.70;;;15.60;99.90;;;;;;5054230;28;20032;-68
2023/08/30 00:23:13;;;;;;;2.13;1.92;;;15.60;99.90;;;;;;5055925;28;20053;-68
2023/08/30 00:25:38;;;;;;;3.70;1.90;;;15.60;99.90;;;;;;5055653;28;20033;-67
2023/08/30 00:28:04;;;;;;;2.30;2.03;;;15.60;99.90;;;;;;5055458;28;20036;-68
2023/08/30 00:30:29;;;;;;;4.50;2.15;;;15.60;99.90;;;;;;5054963;28;20425;-68
2023/08/30 00:32:55;;;;;;;2.70;2.05;;;15.60;99.90;;;;;;5055756;28;20474;-68
2023/08/30 00:35:21;;;;;;;2.55;2.30;;;15.60;99.90;;;;;;5054914;28;20109;-68
2023/08/30 00:37:46;;;;;;;3.03;2.10;;;15.60;99.90;;;;;;5051716;28;20032;-68
2023/08/30 00:40:12;;;;;;;2.35;2.15;;;15.60;99.90;;;;;;5055724;28;20029;-67
2023/08/30 00:42:40;;;;;;;3.30;1.85;;;15.60;99.90;;;;;;5053552;28;20564;-68
2023/08/30 00:45:06;;;;;;;2.42;2.20;;;15.60;99.90;;;;;;5053968;28;20075;-68
2023/08/30 00:47:33;;;;;;;2.50;2.08;;;15.60;99.90;;;;;;5054891;28;20037;-68
2023/08/30 00:49:59;;;;;;;2.55;1.63;;;15.60;99.90;;;;;;5055621;28;20365;-68
2023/08/30 00:52:24;;;;;;;3.63;1.80;;;15.60;99.90;;;;;;5053957;28;20017;-67
2023/08/30 00:54:50;;;;;;;2.88;1.85;;;15.60;99.90;;;;;;5054946;28;20060;-66
2023/08/30 00:57:16;;;;;;;2.40;2.17;;;15.70;99.90;;;;;;5055175;28;20068;-66
2023/08/30 00:59:42;;;;;;;2.50;1.75;;;15.70;99.90;;;;;;5054447;28;20028;-66
2023/08/30 01:02:08;;;;;;;2.50;1.77;;;15.60;99.90;;;;;;5055083;28;20418;-66
2023/08/30 01:04:34;;;;;;;2.45;1.83;;;15.70;99.90;;;;;;5054350;28;20091;-67
2023/08/30 01:06:59;;;;;;;2.30;1.83;;;15.70;99.90;;;;;;5055302;28;20029;-66
2023/08/30 01:09:25;;;;;;;1.98;1.77;;;15.70;99.90;;;;;;5054632;28;20033;-67
2023/08/30 01:12:10;;;;;;;2.38;2.03;;;15.70;99.90;;;;;;5054946;28;20486;-66
2023/08/30 01:14:45;;;;;;;2.42;1.77;;;15.70;99.90;;;;;;5054501;28;20381;-66
2023/08/30 01:17:14;;;;;;;1.90;1.70;;;15.70;99.90;;;;;;5054628;28;20465;-66
2023/08/30 01:19:56;;;;;;;1.70;1.60;;;15.70;99.90;;;;;;5054231;28;20043;-66
2023/08/30 01:22:43;;;;;;;2.42;1.73;;;15.70;99.90;;;;;;5054373;28;20025;-68
2023/08/30 01:25:08;;;;;;;1.80;1.70;;;15.70;99.90;;;;;;5054997;28;20033;-67
2023/08/30 01:27:37;;;;;;;2.15;1.60;;;15.70;99.90;;;;;;5054204;28;20036;-66
2023/08/30 01:30:05;;;;;;;1.80;1.70;;;15.70;99.90;;;;;;5054486;28;20461;-67
2023/08/30 01:32:33;;;;;;;2.58;1.83;;;15.70;99.90;;;;;;5053510;28;20089;-66
2023/08/30 01:35:00;;;;;;;2.03;1.40;;;15.70;99.90;;;;;;5054547;28;20048;-66
2023/08/30 01:37:27;;;;;;;3.60;1.90;;;15.70;99.90;;;;;;5053936;28;20029;-67
2023/08/30 01:39:53;;;;;;;1.70;1.60;;;15.70;99.90;;;;;;5054360;28;20116;-67
2023/08/30 01:42:22;;;;;;;1.92;1.73;;;15.70;99.90;;;;;;5054093;28;20024;-67
2023/08/30 01:44:50;;;;;;;2.28;1.95;;;15.70;99.90;;;;;;5054196;28;20025;-67
2023/08/30 01:47:16;;;;;;;1.70;1.60;;;15.70;99.90;;;;;;5053997;28;20036;-67
2023/08/30 01:49:43;;;;;;;2.83;1.60;;;15.70;99.90;;;;;;5053619;28;20108;-67
2023/08/30 01:52:10;;;;;;;1.88;1.67;;;15.70;99.90;;;;;;5036268;28;20033;-67
2023/08/30 01:54:37;;;;;;;3.72;1.40;;;15.70;99.90;;;;;;5053530;28;20498;-67
2023/08/30 01:57:03;;;;;;;2.78;1.90;;;15.80;99.90;;;;;;5054097;28;20107;-67
2023/08/30 01:59:29;;;;;;;1.73;1.58;;;15.70;99.90;;;;;;5053647;28;20109;-67
2023/08/30 02:01:56;;;;;;;1.80;1.50;;;15.70;99.90;;;;;;5053624;28;20470;-67
2023/08/30 02:04:22;;;;;;;1.65;1.55;;;15.70;99.90;;;;;;5053295;28;20382;-67
2023/08/30 02:07:10;;;;;;;2.30;1.90;;;15.60;99.90;;;;;;5053510;28;20021;-67
2023/08/30 02:09:43;;;;;;;2.83;1.90;;;15.60;99.90;;;;;;5053421;28;20017;-67
2023/08/30 02:12:14;;;;;;;1.95;1.63;;;15.60;99.90;;;;;;5054101;28;20472;-67
2023/08/30 02:14:48;;;;;;;4.47;2.03;;;15.60;99.90;;;;;;5053393;28;20382;-67
2023/08/30 02:17:17;;;;;;;5.18;2.00;;;15.60;99.90;;;;;;5053519;28;20044;-67
2023/08/30 02:19:44;;;;;;;3.35;1.90;;;15.60;99.90;;;;;;5053289;28;20040;-67
2023/08/30 02:22:10;;;;;;;2.17;1.98;;;15.60;99.90;;;;;;5053443;28;20024;-67
2023/08/30 02:24:36;;;;;;;1.85;1.67;;;15.50;99.90;;;;;;5053127;28;20036;-67
2023/08/30 02:27:01;;;;;;;4.10;2.10;;;15.50;99.90;;;;;;5025294;28;20375;-67
2023/08/30 02:29:27;;;;;;;3.08;2.00;;;15.50;99.90;;;;;;5017768;28;20087;-67
2023/08/30 02:31:53;;;;;;;3.17;2.70;;;15.50;99.90;;;;;;5033459;28;20033;-67
2023/08/30 02:34:18;;;;;;;2.28;2.08;;;15.50;99.90;;;;;;5033608;28;20029;-67
2023/08/30 02:36:44;;;;;;;2.42;2.22;;;15.50;99.90;;;;;;5035305;28;20133;-67
2023/08/30 02:39:11;;;;;;;1.98;1.85;;;15.50;99.90;;;;;;5033433;28;20091;-66
2023/08/30 02:41:38;;;;;;;3.75;2.42;;;15.50;99.90;;;;;;5032897;28;20417;-66
2023/08/30 02:44:04;;;;;;;2.20;2.00;;;15.50;99.90;;;;;;5033469;28;20029;-67
2023/08/30 02:46:30;;;;;;;2.75;2.00;;;15.50;99.90;;;;;;5032773;28;20029;-66
2023/08/30 02:48:55;;;;;;;2.60;2.40;;;15.50;99.90;;;;;;5015453;28;20091;-67
2023/08/30 02:51:21;;;;;;;2.22;2.03;;;15.50;99.90;;;;;;5032958;28;20029;-67
2023/08/30 02:53:47;;;;;;;2.22;2.03;;;15.50;99.90;;;;;;5032176;28;20221;-68
2023/08/30 02:56:12;;;;;;;2.50;2.30;;;15.40;99.90;;;;;;5032879;28;20046;-67
2023/08/30 02:58:38;;;;;;;3.35;2.40;;;15.40;99.90;;;;;;5032571;28;20454;-67
2023/08/30 03:01:03;;;;;;;2.40;2.15;;;15.40;99.90;;;;;;5033024;28;20101;-67
2023/08/30 03:03:29;;;;;;;2.42;2.13;;;15.40;99.90;;;;;;5032577;28;20029;-69
2023/08/30 03:05:54;;;;;;;2.97;2.42;;;15.50;99.90;;;;;;5032994;28;20052;-68
2023/08/30 03:08:20;;;;;;;2.20;1.92;;;15.50;99.90;;;;;;5033430;28;20533;-69
2023/08/30 03:10:46;;;;;;;3.92;2.25;;;15.40;99.90;;;;;;5032583;28;20018;-67
2023/08/30 03:13:11;;;;;;;3.17;2.05;;;15.40;99.90;;;;;;5032791;28;20048;-68
2023/08/30 03:15:37;;;;;;;2.47;2.28;;;15.40;99.90;;;;;;5031552;28;20026;-66
2023/08/30 03:18:03;;;;;;;2.60;2.15;;;15.40;99.90;;;;;;5032752;28;20026;-66
2023/08/30 03:20:28;;;;;;;2.92;1.80;;;15.40;99.90;;;;;;5032850;28;20087;-67
2023/08/30 03:23:00;;;;;;;2.20;2.00;;;15.40;99.90;;;;;;5032644;28;20025;-67
2023/08/30 03:25:28;;;;;;;;;;;15.40;99.90;;;;;;5032899;28;20359;-67
2023/08/30 03:27:54;;;;;;;2.10;1.95;;;15.40;99.90;;;;;;5032203;28;19905;-67
2023/08/30 03:30:20;;;;;;;4.15;1.85;;;15.30;99.90;;;;;;5032685;28;20028;-67
2023/08/30 03:32:45;;;;;;;3.65;1.98;;;15.30;99.90;;;;;;5032157;28;20022;-66
2023/08/30 03:35:11;;;;;;;2.10;1.80;;;15.30;99.90;;;;;;5032748;28;20349;-67
2023/08/30 03:37:37;;;;;;;1.95;1.80;;;15.30;99.90;;;;;;5032030;28;20069;-67
2023/08/30 03:40:04;;;;;;;3.10;1.77;;;15.30;99.90;;;;;;5032254;28;20057;-66
2023/08/30 03:42:30;;;;;;;2.17;1.75;;;15.30;99.90;;;;;;5032187;28;20033;-66
2023/08/30 03:44:55;;;;;;;2.05;1.50;;;15.30;99.90;;;;;;5031854;28;20171;-67
2023/08/30 03:47:21;;;;;;;1.70;1.60;;;15.30;99.90;;;;;;5032246;28;20029;-67
2023/08/30 03:49:47;;;;;;;1.90;1.65;;;15.30;99.90;;;;;;5032075;28;20028;-68
2023/08/30 03:52:13;;;;;;;2.10;1.80;;;15.30;99.90;;;;;;5032350;28;20037;-66
2023/08/30 03:54:38;;;;;;;3.42;1.88;;;15.30;99.90;;;;;;5031658;28;20406;-68
2023/08/30 03:57:04;;;;;;;2.47;1.90;;;15.30;99.90;;;;;;5032163;28;20022;-68
2023/08/30 03:59:30;;;;;;;2.28;1.80;;;15.30;99.90;;;;;;5032112;28;20512;-67
2023/08/30 04:01:55;;;;;;;2.33;2.13;;;15.30;99.90;;;;;;5031934;28;20032;-68
2023/08/30 04:04:21;;;;;;;2.15;1.77;;;15.30;99.90;;;;;;5032288;28;20374;-68
2023/08/30 04:06:47;;;;;;;1.95;1.77;;;15.30;99.90;;;;;;5032015;28;20022;-68
2023/08/30 04:09:12;;;;;;;2.10;1.90;;;15.30;99.90;;;;;;5032599;28;20104;-68
2023/08/30 04:11:38;;;;;;;2.95;2.05;;;15.30;99.90;;;;;;5031938;28;20026;-68
2023/08/30 04:14:03;;;;;;;2.15;1.95;;;15.30;99.90;;;;;;5032506;28;20087;-68
2023/08/30 04:16:29;;;;;;;3.58;2.60;;;15.30;99.90;;;;;;5032045;28;20100;-68
2023/08/30 04:18:55;;;;;;;2.40;2.20;;;15.30;99.90;;;;;;5044037;28;20107;-68
2023/08/30 04:21:21;;;;;;;5.07;2.33;;;15.30;99.90;;;;;;5054355;28;20026;-67
2023/08/30 04:23:46;;;;;;;2.67;2.30;;;15.30;99.90;;;;;;5053382;28;20021;-68
2023/08/30 04:26:12;;;;;;;3.00;2.63;;;15.30;99.90;;;;;;5052718;28;20021;-67
2023/08/30 04:28:37;;;;;;;3.15;2.60;;;15.30;99.90;;;;;;5056195;28;20055;-67
2023/08/30 04:31:03;;;;;;;3.88;2.60;;;15.20;99.90;;;;;;5056883;28;20457;-67
2023/08/30 04:33:28;;;;;;;4.93;3.10;;;15.20;99.90;;;;;;5050447;28;20032;-66
2023/08/30 04:35:55;;;;;;;3.25;2.90;;;15.30;99.90;;;;;;5055831;28;20490;-66
2023/08/30 04:38:21;;;;;;;3.55;2.67;;;15.30;99.90;;;;;;5055652;28;20037;-67
2023/08/30 04:40:47;;;;;;;2.92;2.67;;;15.30;99.90;;;;;;5055179;28;20152;-68
2023/08/30 04:43:13;;;;;;;3.15;2.85;;;15.30;99.90;;;;;;5055567;28;20032;-67
2023/08/30 04:45:39;;;;;;;2.78;2.58;;;15.30;99.90;;;;;;5055400;28;20416;-66
2023/08/30 04:48:05;;;;;;;3.55;3.25;;;15.30;99.90;;;;;;5055237;28;20035;-67
2023/08/30 04:50:31;;;;;;;3.00;2.80;;;15.30;99.90;;;;;;5055295;28;20115;-67
2023/08/30 04:52:57;;;;;;;3.33;3.00;;;15.30;99.90;;;;;;5054852;28;20534;-68
2023/08/30 04:55:25;;;;;;;5.13;3.17;;;15.30;99.90;;;;;;5054964;28;20045;-68
2023/08/30 04:57:50;;;;;;;4.28;2.85;;;15.30;99.90;;;;;;5054690;28;20147;-67
2023/08/30 05:00:17;;;;;;;3.42;2.95;;;15.40;99.90;;;;;;5055386;28;20056;-69
2023/08/30 05:02:43;;;;;;;3.60;3.30;;;15.40;99.90;;;;;;5054725;28;20021;-68
2023/08/30 05:05:09;;;;;;;4.60;3.40;;;15.40;99.90;;;;;;5055063;28;20040;-68
2023/08/30 05:07:35;;;;;;;5.15;3.05;;;15.40;99.90;;;;;;5055054;28;20492;-68
2023/08/30 05:10:01;;;;;;;3.53;3.22;;;15.40;99.90;;;;;;5054958;28;20408;-68
2023/08/30 05:12:26;;;;;;;3.70;3.38;;;15.50;99.90;;;;;;5054838;28;20047;-68
2023/08/30 05:14:52;;;;;;;5.97;3.33;;;15.50;99.90;;;;;;5054192;28;20367;-68
2023/08/30 05:17:18;;;;;;;3.35;3.05;;;15.50;99.90;;;;;;5054826;28;20063;-68
2023/08/30 05:19:43;;;;;;;3.95;3.13;;;15.50;99.90;;;;;;5054151;28;20061;-68
2023/08/30 05:22:09;;;;;;;3.55;3.10;;;15.50;99.90;;;;;;5054439;28;20017;-68
2023/08/30 05:24:34;;;;;;;3.72;3.40;;;15.50;99.90;;;;;;5054705;28;20025;-68
2023/08/30 05:27:00;;;;;;;4.22;3.28;;;15.50;99.90;;;;;;5053617;28;20342;-68
2023/08/30 05:29:26;;;;;;;4.03;3.33;;;15.60;99.90;;;;;;5042592;28;20053;-68
2023/08/30 05:31:51;;;;;;;4.25;3.22;;;15.50;99.90;;;;;;5044777;28;20032;-68
2023/08/30 05:34:17;;;;;;;4.95;3.60;;;15.60;99.90;;;;;;5034805;28;20030;-67
2023/08/30 05:36:42;;;;;;;4.30;3.90;;;15.60;99.90;;;;;;5033902;28;20021;-68
2023/08/30 05:39:08;;;;;;;4.43;3.83;;;15.60;99.90;;;;;;5033651;28;20036;-68
2023/08/30 05:41:34;;;;;;;4.07;3.63;;;15.60;99.90;;;;;;5034507;28;20033;-68
2023/08/30 05:43:59;;;;;;;4.07;3.67;;;15.60;99.90;;;;;;5033999;28;20033;-68
2023/08/30 05:46:25;;;;;;;5.95;4.03;;;15.60;99.90;;;;;;5034316;28;20476;-67
2023/08/30 05:48:50;;;;;;;4.93;4.40;;;15.70;99.90;;;;;;5033948;28;20083;-68
2023/08/30 05:51:16;;;;;;;4.32;3.78;;;15.70;99.90;;;;;;5034201;28;20030;-68
2023/08/30 05:53:42;;;;;;;6.00;4.07;;;15.70;99.90;;;;;;5034182;28;20382;-67
2023/08/30 05:56:07;;;;;;;4.35;3.95;;;15.70;99.90;;;;;;5033998;28;20053;-68
2023/08/30 05:58:33;;;;;;;4.80;4.07;;;15.80;99.90;;;;;;5033966;28;20029;-68
2023/08/30 06:01:00;;;;;;;4.47;3.40;;;15.80;99.90;;;;;;5033602;28;20474;-68
2023/08/30 06:03:25;;;;;;;7.13;3.67;;;15.90;99.90;;;;;;5033918;28;20147;-68
2023/08/30 06:05:52;;;;;;;3.95;3.58;;;15.90;99.90;;;;;;5033507;28;20068;-68
2023/08/30 06:08:18;;;;;;;3.50;3.20;;;15.90;99.90;;;;;;5037315;28;20021;-68
2023/08/30 06:10:43;;;;;;;4.78;3.60;;;15.90;99.90;;;;;;5046973;28;20021;-68
2023/08/30 06:13:09;;;;;;;4.13;3.38;;;16.00;99.90;;;;;;5041786;28;20032;-68
2023/08/30 06:15:38;;;;;;;3.83;3.40;;;16.00;99.90;;;;;;5042401;28;20026;-67
2023/08/30 06:18:04;;;;;;;3.85;3.55;;;16.00;99.90;;;;;;5033023;28;20292;-69
2023/08/30 06:20:30;;;;;;;3.55;3.25;;;16.00;99.90;;;;;;5049339;28;20029;-68
2023/08/30 06:22:58;;;;;;;4.95;3.40;;;16.00;99.90;;;;;;5053363;28;20518;-67
2023/08/30 06:25:24;;;;;;;3.38;3.08;;;16.10;99.90;;;;;;5053416;28;20079;-67
2023/08/30 06:28:02;;;;;;;4.80;3.15;;;16.20;99.90;;;;;;5042984;28;20405;-67
2023/08/30 06:30:29;;;;;;;3.95;3.55;;;16.30;99.90;;;;;;5033577;28;20026;-67
2023/08/30 06:32:55;;;;;;;3.60;3.30;;;16.30;99.90;;;;;;5033038;28;20036;-67
2023/08/30 06:35:21;;;;;;;4.00;3.60;;;16.40;99.90;;;;;;5033231;28;20108;-67
2023/08/30 06:37:46;;;;;;;4.78;3.45;;;16.40;99.90;;;;;;5032811;28;20128;-70
2023/08/30 06:40:12;;;;;;;3.70;3.30;;;16.50;99.90;;;;;;5032696;28;20034;-67
2023/08/30 06:42:38;;;;;;;3.80;3.33;;;16.60;99.90;;;;;;5035510;28;20104;-67
2023/08/30 06:45:04;;;;;;;3.47;3.17;;;16.60;99.90;;;;;;5032575;28;20460;-68
2023/08/30 06:47:30;;;;;;;3.80;3.50;;;16.60;99.90;;;;;;5032626;28;20033;-68
2023/08/30 06:49:55;;;;;;;4.10;2.88;;;16.70;99.90;;;;;;5031958;28;20378;-67
2023/08/30 06:52:21;;;;;;;2.97;2.70;;;16.80;99.90;;;;;;5032277;28;20026;-67
2023/08/30 06:54:46;;;;;;;3.13;2.83;;;16.80;99.90;;;;;;5036572;28;20048;-67
2023/08/30 06:57:12;;;;;;;4.00;3.05;;;16.80;99.90;;;;;;5024128;28;20032;-67
2023/08/30 06:59:38;;;;;;;2.95;2.45;;;16.80;99.90;;;;;;5040513;28;20101;-68
2023/08/30 07:02:04;;;;;;;3.10;2.80;;;16.90;99.90;;;;;;5040317;28;20466;-67
2023/08/30 07:04:29;;;;;;;3.15;2.85;;;16.80;99.90;;;;;;5041929;28;20072;-68
2023/08/30 07:06:55;;;;;;;3.78;2.50;;;16.90;99.90;;;;;;5041415;28;20468;-67
2023/08/30 07:09:23;;;;;;;3.47;2.67;;;16.90;99.90;;;;;;5046248;28;20025;-68
2023/08/30 07:11:49;;;;;;;4.97;2.78;;;17.00;99.90;;;;;;5052030;28;20036;-67
2023/08/30 07:14:14;;;;;;;2.88;2.63;;;17.00;99.90;;;;;;5052094;28;20600;-67
2023/08/30 07:16:40;;;;;;;2.63;2.40;;;17.10;99.90;;;;;;5052363;28;20036;-67
2023/08/30 07:19:06;;;;;;;3.28;2.33;;;17.10;99.90;;;;;;5044809;28;20069;-67
2023/08/30 07:21:33;;;;;;;2.40;2.20;;;17.20;99.90;;;;;;5032402;28;20103;-68
2023/08/30 07:23:58;;;;;;;2.65;2.45;;;17.30;99.90;;;;;;5032142;28;20037;-67
2023/08/30 07:26:24;;;;;;;2.13;1.92;;;17.40;99.90;;;;;;5032075;28;20363;-67
2023/08/30 07:28:50;;;;;;;2.80;2.25;;;17.50;99.90;;;;;;5032057;28;20087;-68
2023/08/30 07:31:18;;;;;;;2.92;2.33;;;17.60;99.90;;;;;;5032286;28;20466;-67
2023/08/30 07:33:44;;;;;;;4.00;2.28;;;17.80;99.90;;;;;;5038585;28;20027;-68
2023/08/30 07:36:11;;;;;;;3.67;2.03;;;17.80;99.90;;;;;;5051546;28;20449;-68
2023/08/30 07:38:37;;;;;;;2.25;2.05;;;18.10;99.90;;;;;;5052191;28;20041;-68
2023/08/30 07:41:02;;;;;;;1.75;1.65;;;18.60;99.90;;;;;;5052174;28;20367;-68
2023/08/30 07:43:28;;;;;;;2.95;1.70;;;19.40;98.30;;;;;;5052004;28;20033;-68
2023/08/30 07:45:54;;;;;;;1.70;1.60;;;19.70;97.40;;;;;;5051867;28;20025;-69
2023/08/30 07:48:19;;;;;;;1.35;1.23;;;19.90;95.30;;;;;;5052369;28;20163;-69
2023/08/30 07:50:45;;;;;;;1.73;1.50;;;20.10;93.20;;;;;;5052479;28;20163;-68
2023/08/30 07:53:12;;;;;;;1.63;1.35;;;20.50;92.90;;;;;;5051815;28;20219;-68
2023/08/30 07:55:37;;;;;;;1.65;1.55;;;20.80;93.40;;;;;;5052374;28;20428;-68
2023/08/30 07:58:03;;;;;;;1.33;1.20;;;21.00;90.60;;;;;;5051584;28;20040;-68
2023/08/30 08:00:29;;;;;;;1.52;1.42;;;20.80;90.20;;;;;;5051972;28;20102;-67
2023/08/30 08:02:55;;;;;;;2.85;1.20;;;20.40;90.40;;;;;;5053512;28;20552;-68
2023/08/30 08:05:21;;;;;;;1.50;1.40;;;20.50;90.30;;;;;;5033036;28;20096;-68
2023/08/30 08:07:52;;;;;;;1.80;1.70;;;20.10;90.20;;;;;;5035861;28;20026;-67
2023/08/30 08:10:18;;;;;;;1.88;1.67;;;19.90;91.10;;;;;;5035707;28;20371;-68
2023/08/30 08:12:43;;;;;;;1.77;1.52;;;19.70;91.80;;;;;;5035882;28;20100;-68
2023/08/30 08:15:09;;;;;;;1.27;1.17;;;19.50;91.90;;;;;;5035125;28;20117;-68
2023/08/30 08:17:35;;;;;;;2.13;1.23;;;19.20;92.90;;;;;;5035746;28;20029;-68
2023/08/30 08:20:00;;;;;;;1.35;1.25;;;19.00;93.60;;;;;;5052163;28;20116;-67
2023/08/30 08:22:26;;;;;;;1.20;1.10;;;18.90;94.10;;;;;;5055282;28;20446;-68
2023/08/30 08:24:53;;;;;;;1.00;0.88;;;18.90;94.50;;;;;;5055646;28;20083;-68
2023/08/30 08:27:19;;;;;;;2.50;1.10;;;19.50;93.30;;;;;;5055599;28;20040;-69
2023/08/30 08:29:45;;;;;;;1.30;1.20;;;19.30;92.80;;;;;;5055613;28;20025;-68
2023/08/30 08:32:10;;;;;;;1.50;1.20;;;19.20;92.90;;;;;;5054941;28;20025;-68
2023/08/30 08:34:36;;;;;;;1.30;1.20;;;19.00;93.40;;;;;;5055377;28;20025;-69
2023/08/30 08:37:01;;;;;;;1.70;1.17;;;19.00;93.70;;;;;;5051489;28;20065;-68
2023/08/30 08:39:27;;;;;;;1.38;1.20;;;18.80;93.60;;;;;;5055528;28;20061;-68
2023/08/30 08:41:54;;;;;;;1.42;1.30;;;18.80;94.20;;;;;;5055209;28;20537;-69
2023/08/30 08:44:22;;;;;;;1.73;1.20;;;18.60;94.40;;;;;;5054775;28;20036;-70
2023/08/30 08:46:49;;;;;;;0.98;0.98;;;18.50;94.20;;;;;;5055106;28;20096;-68
2023/08/30 08:49:15;;;;;;;4.55;1.27;;;18.60;94.40;;;;;;5054687;28;20231;-68
2023/08/30 08:51:43;;;;;;;3.25;1.20;;;18.50;94.50;;;;;;5055136;28;20025;-68
2023/08/30 08:54:09;;;;;;;1.25;1.10;;;18.60;95.00;;;;;;5054432;28;20112;-68
2023/08/30 08:56:36;;;;;;;2.40;1.08;;;18.80;94.30;;;;;;5054700;28;20044;-68
2023/08/30 08:59:01;;;;;;;1.48;1.08;;;18.80;93.60;;;;;;5054379;28;20054;-67
2023/08/30 09:01:28;;;;;;;1.52;1.25;;;18.90;93.00;;;;;;5054608;28;20029;-68
2023/08/30 09:03:53;;;;;;;2.15;1.00;;;18.80;93.30;;;;;;5054567;28;20021;-69
2023/08/30 09:06:20;;;;;;;2.95;1.10;;;18.90;92.80;;;;;;5053987;28;20100;-69
2023/08/30 09:08:46;;;;;;;1.15;1.05;;;19.00;92.70;;;;;;5054583;28;20053;-68
2023/08/30 09:11:11;;;;;;;3.65;1.02;;;19.00;92.60;;;;;;5054249;28;20064;-68
2023/08/30 09:13:37;;;;;;;1.02;0.80;;;19.00;92.60;;;;;;5053981;28;20029;-69
2023/08/30 09:16:03;;;;;;;0.82;0.70;;;19.10;92.10;;;;;;5054437;28;20033;-69
2023/08/30 09:18:28;;;;;;;0.73;0.73;;;19.20;90.50;;;;;;5052519;28;20084;-69
2023/08/30 09:21:07;;;;;;;0.70;0.70;;;19.40;90.70;;;;;;5034649;28;20029;-68
2023/08/30 09:23:34;;;;;;;1.55;0.73;;;19.50;90.00;;;;;;5034565;28;20079;-69
2023/08/30 09:26:00;;;;;;;3.45;0.90;;;19.50;88.90;;;;;;5034210;28;20083;-68
2023/08/30 09:28:26;;;;;;;2.92;0.70;;;19.60;88.90;;;;;;5034257;28;20123;-69
2023/08/30 09:30:52;;;;;;;0.85;0.80;;;19.70;88.90;;;;;;5034419;28;20026;-68
2023/08/30 09:33:34;;;;;;;2.25;1.00;;;19.70;87.50;;;;;;5034051;28;20057;-68
2023/08/30 09:36:00;;;;;;;0.60;0.60;;;19.60;87.00;;;;;;5033914;28;20033;-68
2023/08/30 09:38:26;;;;;;;2.67;0.93;;;19.50;87.80;;;;;;5032242;28;20033;-68
2023/08/30 09:41:02;;;;;;;2.10;0.90;;;19.50;89.00;;;;;;5034189;28;20033;-68
2023/08/30 09:43:27;;;;;;;1.30;0.90;;;19.40;88.60;;;;;;5033967;28;20078;-68
2023/08/30 09:45:53;;;;;;;1.23;0.77;;;19.40;88.50;;;;;;5034080;28;20108;-67
2023/08/30 09:48:32;;;;;;;0.80;0.80;;;19.40;88.50;;;;;;5033247;28;20436;-68
2023/08/30 09:51:01;;;;;;;0.80;0.80;;;19.50;88.60;;;;;;5033998;28;20029;-68
2023/08/30 09:53:29;;;;;;;2.80;0.90;;;19.50;89.10;;;;;;5033900;28;20080;-67
2023/08/30 09:55:56;;;;;;;1.00;0.80;;;19.60;89.10;;;;;;5034065;28;20053;-68
2023/08/30 09:58:23;;;;;;;1.63;1.10;;;19.70;87.90;;;;;;5033247;28;20033;-69
2023/08/30 10:00:49;;;;;;;4.10;1.23;;;19.70;86.10;;;;;;5015793;28;20029;-68
2023/08/30 10:03:18;;;;;;;1.77;1.15;;;19.70;86.10;;;;;;5032957;28;20417;-68
2023/08/30 10:05:45;;;;;;;2.38;0.93;;;19.80;86.20;;;;;;5033181;28;20026;-68
2023/08/30 10:08:12;;;;;;;0.82;0.82;;;19.80;86.80;;;;;;5014940;28;20034;-68
2023/08/30 10:10:39;;;;;;;0.80;0.80;;;19.90;85.00;;;;;;5033426;28;20109;-68
2023/08/30 10:13:06;;;;;;;2.60;0.80;;;19.80;84.80;;;;;;5049180;28;20074;-69
2023/08/30 10:15:35;;;;;;;0.93;0.80;;;19.70;85.20;;;;;;5053502;28;20158;-69
2023/08/30 10:18:03;;;;;;;0.98;0.90;;;19.70;85.60;;;;;;5052814;28;20037;-70
2023/08/30 10:20:29;;;;;;;1.02;1.00;;;19.50;85.30;;;;;;5036740;28;20461;-68
2023/08/30 10:22:58;;;;;;;1.25;1.15;;;19.50;86.20;;;;;;5033277;28;20029;-68
2023/08/30 10:25:29;;;;;;;0.95;0.95;;;19.50;86.70;;;;;;5032430;28;20484;-67
2023/08/30 10:27:55;;;;;;;1.65;1.20;;;19.40;86.70;;;;;;5033030;28;20029;-68
2023/08/30 10:30:22;;;;;;;2.40;1.00;;;19.40;87.90;;;;;;5014644;28;20132;-68
2023/08/30 10:32:48;;;;;;;2.03;1.10;;;19.40;89.90;;;;;;5033032;28;20036;-68
2023/08/30 10:35:15;;;;;;;1.15;1.05;;;19.40;90.50;;;;;;5051308;28;20112;-68
2023/08/30 10:37:42;;;;;;;1.55;1.10;;;19.40;90.50;;;;;;5052826;28;20028;-68
2023/08/30 10:40:08;;;;;;;1.10;1.00;;;19.50;91.10;;;;;;5052991;28;20068;-69
2023/08/30 10:42:34;;;;;;;2.00;1.20;;;19.50;91.10;;;;;;5052956;28;20032;-68
2023/08/30 10:45:05;;;;;;;1.58;1.48;;;19.40;91.80;;;;;;5053163;28;20024;-68
2023/08/30 10:47:32;;;;;;;3.50;1.43;;;19.40;92.30;;;;;;5053276;28;20056;-69
2023/08/30 10:49:59;;;;;;;1.60;1.40;;;19.30;92.70;;;;;;5053016;28;20029;-69
2023/08/30 10:52:27;;;;;;;2.53;1.42;;;19.20;93.30;;;;;;5052695;28;20017;-69
2023/08/30 10:54:52;;;;;;;2.53;1.48;;;19.20;93.80;;;;;;5052671;28;20049;-68
2023/08/30 10:57:21;;;;;;;3.00;1.38;;;19.10;94.00;;;;;;5052352;28;20043;-69
2023/08/30 11:00:09;;;;;;;6.47;1.60;;;19.20;94.50;;;;;;5052861;28;20033;-69
2023/08/30 11:02:38;;;;;;;2.25;1.30;;;19.10;94.90;;;;;;5052805;28;20033;-69
2023/08/30 11:05:06;;;;;;;1.85;1.60;;;19.20;94.70;;;;;;5052660;28;20466;-68
2023/08/30 11:07:32;;;;;;;2.53;1.48;;;19.30;94.90;;;;;;5052627;28;20036;-68
2023/08/30 11:09:58;;;;;;;3.45;1.70;;;19.20;94.60;;;;;;5052777;28;20021;-67
2023/08/30 11:12:29;;;;;;;2.08;1.70;;;19.10;94.90;;;;;;5052441;28;20082;-68
2023/08/30 11:14:55;;;;;;;1.85;1.65;;;19.00;95.50;;;;;;5052745;28;20047;-68
2023/08/30 11:17:21;;;;;;;3.15;1.85;;;18.90;95.80;;;;;;5052192;28;20462;-68
2023/08/30 11:19:51;;;;;;;1.63;1.20;;;18.80;95.90;;;;;;5052316;28;20033;-68
2023/08/30 11:22:17;;;;;;;3.00;1.52;;;18.60;96.50;;;;;;5052127;28;20021;-69
2023/08/30 11:24:43;;;;;;;1.80;1.70;;;18.60;97.50;;;;;;5052468;28;20045;-68
2023/08/30 11:27:09;;;;;;;2.17;1.48;;;18.60;97.20;;;;;;5051970;28;20056;-67
2023/08/30 11:29:35;;;;;;;1.70;1.55;;;18.60;97.50;;;;;;5052442;28;20025;-69
2023/08/30 11:32:01;;;;;;;1.75;1.65;;;18.80;97.30;;;;;;5052532;28;20025;-68
2023/08/30 11:34:27;;;;;;;1.90;1.42;;;18.90;96.30;;;;;;5052072;28;20548;-67
2023/08/30 11:36:53;;;;;;;2.95;1.60;;;19.00;95.70;;;;;;5053088;28;20072;-68
2023/08/30 11:39:20;;;;;;;2.60;1.20;;;19.10;95.60;;;;;;5056071;28;20452;-68
2023/08/30 11:41:46;;;;;;;1.38;1.27;;;19.10;95.90;;;;;;5056442;28;20041;-68
2023/08/30 11:44:12;;;;;;;3.90;1.30;;;19.20;95.20;;;;;;5056139;28;20100;-68
2023/08/30 11:46:37;;;;;;;1.73;1.52;;;19.30;94.90;;;;;;5056475;28;20459;-68
2023/08/30 11:49:04;;;;;;;2.00;1.20;;;19.30;94.30;;;;;;5056009;28;20397;-68
2023/08/30 11:51:30;;;;;;;2.15;1.27;;;19.40;93.50;;;;;;5038061;28;20061;-68
2023/08/30 11:53:56;;;;;;;1.52;1.40;;;19.30;93.70;;;;;;5056255;28;20036;-68
2023/08/30 11:56:23;;;;;;;1.77;1.38;;;19.40;93.80;;;;;;5055467;28;20041;-68
2023/08/30 11:58:49;;;;;;;1.90;1.27;;;19.20;94.20;;;;;;5056252;28;20029;-68
2023/08/30 12:01:15;;;;;;;2.20;1.75;;;19.20;94.60;;;;;;5055822;28;20036;-68
2023/08/30 12:03:41;;;;;;;2.47;1.83;;;19.10;94.10;;;;;;5056467;28;20093;-68
2023/08/30 12:06:12;;;;;;;4.45;1.70;;;19.10;94.40;;;;;;5056178;28;20025;-68
2023/08/30 12:08:37;;;;;;;2.30;2.00;;;19.10;94.70;;;;;;5056118;28;20036;-68
2023/08/30 12:11:03;;;;;;;2.75;1.58;;;19.10;94.10;;;;;;5055947;28;20033;-68
2023/08/30 12:13:31;;;;;;;1.77;1.33;;;19.10;94.10;;;;;;5055302;28;20104;-68
2023/08/30 12:15:58;;;;;;;1.65;1.30;;;19.10;93.50;;;;;;5055838;28;20048;-67
2023/08/30 12:18:28;;;;;;;2.15;1.30;;;19.10;93.40;;;;;;5055396;28;20115;-68
2023/08/30 12:20:59;;;;;;;2.13;1.67;;;19.10;93.60;;;;;;5036839;28;20049;-68
2023/08/30 12:23:27;;;;;;;1.73;1.30;;;19.10;93.10;;;;;;5019964;28;20461;-69
2023/08/30 12:26:04;;;;;;;1.60;1.05;;;19.00;92.70;;;;;;5037632;28;20537;-68
2023/08/30 12:28:32;;;;;;;2.45;0.98;;;19.00;92.00;;;;;;5034895;28;20080;-68
2023/08/30 12:30:58;;;;;;;1.40;1.30;;;19.00;92.00;;;;;;5035325;28;20021;-68
2023/08/30 12:33:28;;;;;;;1.42;1.30;;;19.10;92.60;;;;;;5035050;28;20033;-68
2023/08/30 12:35:54;;;;;;;1.35;1.00;;;19.00;92.40;;;;;;5035370;28;20467;-67
2023/08/30 12:38:20;;;;;;;1.63;1.30;;;19.00;92.40;;;;;;5034927;28;20155;-68
2023/08/30 12:40:50;;;;;;;1.40;1.20;;;19.00;91.90;;;;;;5035483;28;20483;-67
2023/08/30 12:43:17;;;;;;;1.50;1.20;;;19.10;91.60;;;;;;5035080;28;20391;-68
2023/08/30 12:45:43;;;;;;;1.33;1.13;;;19.10;91.40;;;;;;5017629;28;20025;-67